JST526 YMML-YSSY
Flight info
| Callsign | JST526 |
|---|---|
| Flight time | 1h 4m |
| Altitude | 35000 |
| Route | DOSEL2/34 DOSEL Y59 RIVET |
| Aircraft | A320/M-SDE3FGHIRWY/LB1 |
Departure
| Time | 2026-05-01 09:27 |
|---|---|
| Airport | Melbourne Airport (YMML) |
Arrival
| Time | 2026-05-01 10:32 |
|---|---|
| Airport | Sydney Kingsford Smith International Airport (YSSY) |
| Time | Latitude | Longitude | Altitude | Speed | Heading |
|---|---|---|---|---|---|
| 2026-05-01 08:48 | -37.67525 | 144.84742 | 380 ft | 0 kts | 171° |
| 2026-05-01 09:09 | -37.67513 | 144.84739 | 380 ft | 4 kts | 172° |
| 2026-05-01 09:09 | -37.67486 | 144.84734 | 380 ft | 4 kts | 170° |
| 2026-05-01 09:09 | -37.67460 | 144.84727 | 381 ft | 4 kts | 159° |
| 2026-05-01 09:09 | -37.67448 | 144.84720 | 381 ft | 1 kts | 140° |
| 2026-05-01 09:13 | -37.67450 | 144.84721 | 381 ft | 1 kts | 152° |
| 2026-05-01 09:13 | -37.67453 | 144.84717 | 381 ft | 0 kts | 197° |
| 2026-05-01 09:14 | -37.67454 | 144.84712 | 381 ft | 1 kts | 243° |
| 2026-05-01 09:14 | -37.67448 | 144.84706 | 377 ft | 2 kts | 307° |
| 2026-05-01 09:14 | -37.67443 | 144.84688 | 375 ft | 2 kts | 271° |
| 2026-05-01 09:15 | -37.67443 | 144.84687 | 375 ft | 0 kts | 270° |
| 2026-05-01 09:16 | -37.67444 | 144.84663 | 369 ft | 5 kts | 263° |
| 2026-05-01 09:16 | -37.67448 | 144.84624 | 388 ft | 6 kts | 262° |
| 2026-05-01 09:16 | -37.67456 | 144.84559 | 380 ft | 6 kts | 261° |
| 2026-05-01 09:17 | -37.67465 | 144.84483 | 378 ft | 5 kts | 261° |
| 2026-05-01 09:17 | -37.67472 | 144.84427 | 377 ft | 7 kts | 261° |
| 2026-05-01 09:17 | -37.67549 | 144.84333 | 374 ft | 13 kts | 174° |
| 2026-05-01 09:18 | -37.67650 | 144.84353 | 371 ft | 16 kts | 171° |
| 2026-05-01 09:18 | -37.67841 | 144.84323 | 362 ft | 8 kts | 230° |
| 2026-05-01 09:19 | -37.67858 | 144.84241 | 362 ft | 0 kts | 262° |
| 2026-05-01 09:21 | -37.67859 | 144.84233 | 360 ft | 3 kts | 262° |
| 2026-05-01 09:21 | -37.67872 | 144.84126 | 361 ft | 7 kts | 261° |
| 2026-05-01 09:22 | -37.67874 | 144.84109 | 361 ft | 0 kts | 261° |
| 2026-05-01 09:24 | -37.67878 | 144.84073 | 358 ft | 7 kts | 261° |
| 2026-05-01 09:25 | -37.67848 | 144.83961 | 358 ft | 4 kts | 351° |
| 2026-05-01 09:25 | -37.67836 | 144.83959 | 359 ft | 0 kts | 353° |
| 2026-05-01 09:26 | -37.67832 | 144.83959 | 359 ft | 4 kts | 353° |
| 2026-05-01 09:26 | -37.66952 | 144.83794 | 388 ft | 123 kts | 351° |
| 2026-05-01 09:26 | -37.65965 | 144.83620 | 507 ft | 157 kts | 355° |
| 2026-05-01 09:27 | -37.63826 | 144.83202 | 1865 ft | 155 kts | 355° |
| 2026-05-01 09:27 | -37.62731 | 144.82968 | 2325 ft | 169 kts | 356° |
| 2026-05-01 09:27 | -37.61491 | 144.82733 | 2584 ft | 191 kts | 355° |
| 2026-05-01 09:28 | -37.60085 | 144.82479 | 2869 ft | 217 kts | 355° |
| 2026-05-01 09:28 | -37.58530 | 144.82659 | 3361 ft | 234 kts | 21° |
| 2026-05-01 09:28 | -37.57032 | 144.83546 | 4181 ft | 242 kts | 24° |
| 2026-05-01 09:28 | -37.55501 | 144.84482 | 5080 ft | 247 kts | 24° |
| 2026-05-01 09:29 | -37.52357 | 144.86394 | 6894 ft | 254 kts | 23° |
| 2026-05-01 09:29 | -37.50753 | 144.87365 | 7740 ft | 258 kts | 23° |
| 2026-05-01 09:30 | -37.47471 | 144.89356 | 9391 ft | 266 kts | 22° |
| 2026-05-01 09:30 | -37.45786 | 144.90377 | 10177 ft | 272 kts | 23° |
| 2026-05-01 09:30 | -37.42623 | 144.93580 | 10737 ft | 322 kts | 46° |
| 2026-05-01 09:31 | -37.41244 | 144.95937 | 10877 ft | 347 kts | 53° |
| 2026-05-01 09:31 | -37.39836 | 144.98524 | 11006 ft | 368 kts | 52° |
| 2026-05-01 09:31 | -37.36742 | 145.03992 | 11615 ft | 393 kts | 52° |
| 2026-05-01 09:32 | -37.35139 | 145.06793 | 12199 ft | 397 kts | 52° |
| 2026-05-01 09:32 | -37.31889 | 145.12493 | 13338 ft | 405 kts | 52° |
| 2026-05-01 09:32 | -37.30242 | 145.15392 | 13903 ft | 409 kts | 52° |
| 2026-05-01 09:33 | -37.28585 | 145.18320 | 14427 ft | 413 kts | 52° |
| 2026-05-01 09:33 | -37.26916 | 145.21267 | 14939 ft | 416 kts | 52° |
| 2026-05-01 09:33 | -37.23532 | 145.27228 | 15940 ft | 422 kts | 52° |
| 2026-05-01 09:34 | -37.21841 | 145.30202 | 16410 ft | 425 kts | 52° |
| 2026-05-01 09:34 | -37.20116 | 145.33228 | 16899 ft | 428 kts | 52° |
| 2026-05-01 09:34 | -37.16616 | 145.39342 | 17870 ft | 434 kts | 52° |
| 2026-05-01 09:35 | -37.14847 | 145.42430 | 18357 ft | 437 kts | 52° |
| 2026-05-01 09:35 | -37.11277 | 145.48665 | 19212 ft | 443 kts | 51° |
| 2026-05-01 09:35 | -37.09472 | 145.51809 | 19631 ft | 446 kts | 51° |
| 2026-05-01 09:36 | -37.08266 | 145.53905 | 19904 ft | 447 kts | 51° |
| 2026-05-01 09:36 | -37.06441 | 145.57073 | 20321 ft | 450 kts | 51° |
| 2026-05-01 09:36 | -37.04608 | 145.60259 | 20721 ft | 452 kts | 51° |
| 2026-05-01 09:36 | -37.02766 | 145.63462 | 21114 ft | 454 kts | 51° |
| 2026-05-01 09:37 | -37.00943 | 145.66632 | 22068 ft | 440 kts | 51° |
| 2026-05-01 09:37 | -36.97501 | 145.72613 | 24328 ft | 412 kts | 51° |
| 2026-05-01 09:37 | -36.95824 | 145.75512 | 24841 ft | 412 kts | 51° |
| 2026-05-01 09:38 | -36.92436 | 145.81332 | 25653 ft | 416 kts | 51° |
| 2026-05-01 09:38 | -36.90732 | 145.84262 | 26036 ft | 419 kts | 51° |
| 2026-05-01 09:38 | -36.89016 | 145.87225 | 26401 ft | 422 kts | 51° |
| 2026-05-01 09:39 | -36.85553 | 145.93205 | 27095 ft | 428 kts | 51° |
| 2026-05-01 09:39 | -36.83809 | 145.96209 | 27661 ft | 425 kts | 51° |
| 2026-05-01 09:39 | -36.82105 | 145.99139 | 28249 ft | 422 kts | 51° |
| 2026-05-01 09:40 | -36.80382 | 146.02102 | 28765 ft | 421 kts | 51° |
| 2026-05-01 09:40 | -36.76971 | 146.07948 | 29876 ft | 417 kts | 52° |
| 2026-05-01 09:40 | -36.75255 | 146.10882 | 30215 ft | 421 kts | 52° |
| 2026-05-01 09:41 | -36.73522 | 146.13841 | 30535 ft | 424 kts | 52° |
| 2026-05-01 09:41 | -36.70022 | 146.19813 | 31145 ft | 429 kts | 52° |
| 2026-05-01 09:41 | -36.68257 | 146.22830 | 31459 ft | 432 kts | 51° |
| 2026-05-01 09:42 | -36.66513 | 146.25888 | 31770 ft | 436 kts | 57° |
| 2026-05-01 09:42 | -36.65312 | 146.29368 | 32073 ft | 442 kts | 75° |
| 2026-05-01 09:42 | -36.65438 | 146.37036 | 32572 ft | 453 kts | 101° |
| 2026-05-01 09:43 | -36.66743 | 146.44797 | 32827 ft | 468 kts | 102° |
| 2026-05-01 09:43 | -36.67423 | 146.48791 | 32963 ft | 474 kts | 101° |
| 2026-05-01 09:43 | -36.67718 | 146.52888 | 33144 ft | 478 kts | 86° |
| 2026-05-01 09:44 | -36.65799 | 146.60685 | 33799 ft | 472 kts | 54° |
| 2026-05-01 09:44 | -36.63729 | 146.63814 | 34173 ft | 466 kts | 38° |
| 2026-05-01 09:44 | -36.61219 | 146.66336 | 34512 ft | 463 kts | 34° |
| 2026-05-01 09:45 | -36.58666 | 146.68779 | 34869 ft | 463 kts | 34° |
| 2026-05-01 09:45 | -36.53555 | 146.73636 | 35287 ft | 463 kts | 33° |
| 2026-05-01 09:45 | -36.50977 | 146.76080 | 35316 ft | 470 kts | 33° |
| 2026-05-01 09:46 | -36.45752 | 146.81033 | 35309 ft | 474 kts | 34° |
| 2026-05-01 09:46 | -36.40507 | 146.86009 | 35306 ft | 475 kts | 34° |
| 2026-05-01 09:47 | -36.35245 | 146.90996 | 35312 ft | 477 kts | 34° |
| 2026-05-01 09:47 | -36.29973 | 146.95991 | 35314 ft | 477 kts | 34° |
| 2026-05-01 09:48 | -36.24697 | 147.00976 | 35312 ft | 477 kts | 34° |
| 2026-05-01 09:48 | -36.19457 | 147.06022 | 35308 ft | 479 kts | 39° |
| 2026-05-01 09:49 | -36.15109 | 147.12245 | 35310 ft | 484 kts | 51° |
| 2026-05-01 09:49 | -36.11092 | 147.18940 | 35313 ft | 485 kts | 51° |
| 2026-05-01 09:50 | -36.07044 | 147.25642 | 35301 ft | 486 kts | 50° |
| 2026-05-01 09:50 | -36.02987 | 147.32331 | 35312 ft | 486 kts | 50° |
| 2026-05-01 09:51 | -35.98930 | 147.39006 | 35323 ft | 486 kts | 50° |
| 2026-05-01 09:51 | -35.94899 | 147.45643 | 35320 ft | 486 kts | 51° |
| 2026-05-01 09:52 | -35.90834 | 147.52337 | 35319 ft | 487 kts | 51° |
| 2026-05-01 09:52 | -35.86764 | 147.59025 | 35322 ft | 488 kts | 50° |
| 2026-05-01 09:53 | -35.82683 | 147.65701 | 35340 ft | 488 kts | 50° |
| 2026-05-01 09:53 | -35.78597 | 147.72370 | 35342 ft | 487 kts | 50° |
| 2026-05-01 09:54 | -35.74518 | 147.79020 | 35341 ft | 487 kts | 50° |
| 2026-05-01 09:54 | -35.70428 | 147.85665 | 35350 ft | 487 kts | 50° |
| 2026-05-01 09:55 | -35.66339 | 147.92302 | 35347 ft | 487 kts | 50° |
| 2026-05-01 09:55 | -35.62252 | 147.98944 | 35353 ft | 487 kts | 51° |
| 2026-05-01 09:56 | -35.58163 | 148.05574 | 35367 ft | 487 kts | 50° |
| 2026-05-01 09:56 | -35.54085 | 148.12155 | 35365 ft | 487 kts | 50° |
| 2026-05-01 09:57 | -35.49982 | 148.18755 | 35359 ft | 487 kts | 50° |
| 2026-05-01 09:57 | -35.45869 | 148.25359 | 35368 ft | 487 kts | 50° |
| 2026-05-01 09:58 | -35.41754 | 148.31955 | 35384 ft | 486 kts | 50° |
| 2026-05-01 09:58 | -35.37649 | 148.38554 | 35388 ft | 486 kts | 50° |
| 2026-05-01 09:59 | -35.33540 | 148.45141 | 35370 ft | 487 kts | 50° |
| 2026-05-01 09:59 | -35.29418 | 148.51715 | 35388 ft | 486 kts | 50° |
| 2026-05-01 10:00 | -35.25328 | 148.58227 | 35394 ft | 485 kts | 50° |
| 2026-05-01 10:00 | -35.21221 | 148.64765 | 35386 ft | 484 kts | 50° |
| 2026-05-01 10:01 | -35.17109 | 148.71295 | 35389 ft | 484 kts | 50° |
| 2026-05-01 10:01 | -35.12998 | 148.77808 | 35383 ft | 484 kts | 50° |
| 2026-05-01 10:02 | -35.08879 | 148.84307 | 35390 ft | 483 kts | 50° |
| 2026-05-01 10:02 | -35.04772 | 148.90797 | 35383 ft | 482 kts | 50° |
| 2026-05-01 10:03 | -35.00670 | 148.97273 | 35382 ft | 483 kts | 50° |
| 2026-05-01 10:03 | -34.96578 | 149.03699 | 35381 ft | 483 kts | 50° |
| 2026-05-01 10:04 | -34.92455 | 149.10158 | 35388 ft | 482 kts | 50° |
| 2026-05-01 10:04 | -34.88346 | 149.16610 | 35384 ft | 482 kts | 50° |
| 2026-05-01 10:05 | -34.84231 | 149.23059 | 35384 ft | 482 kts | 50° |
| 2026-05-01 10:05 | -34.80109 | 149.29491 | 35198 ft | 481 kts | 50° |
| 2026-05-01 10:06 | -34.78047 | 149.32703 | 34962 ft | 481 kts | 50° |
| 2026-05-01 10:06 | -34.75984 | 149.35909 | 34719 ft | 481 kts | 50° |
| 2026-05-01 10:06 | -34.73991 | 149.39189 | 34491 ft | 484 kts | 56° |
| 2026-05-01 10:06 | -34.72353 | 149.42769 | 34244 ft | 486 kts | 61° |
| 2026-05-01 10:07 | -34.70782 | 149.46409 | 33972 ft | 487 kts | 60° |
| 2026-05-01 10:07 | -34.69203 | 149.50042 | 33474 ft | 486 kts | 60° |
| 2026-05-01 10:07 | -34.67621 | 149.53671 | 32654 ft | 487 kts | 60° |
| 2026-05-01 10:07 | -34.66050 | 149.57261 | 31838 ft | 488 kts | 60° |
| 2026-05-01 10:08 | -34.62855 | 149.64544 | 30424 ft | 484 kts | 59° |
| 2026-05-01 10:08 | -34.61275 | 149.68136 | 29629 ft | 481 kts | 60° |
| 2026-05-01 10:08 | -34.59698 | 149.71724 | 28512 ft | 484 kts | 60° |
| 2026-05-01 10:09 | -34.58106 | 149.75346 | 27419 ft | 487 kts | 60° |
| 2026-05-01 10:09 | -34.56515 | 149.78977 | 26380 ft | 489 kts | 60° |
| 2026-05-01 10:09 | -34.54915 | 149.82623 | 25763 ft | 490 kts | 60° |
| 2026-05-01 10:09 | -34.53311 | 149.86273 | 25532 ft | 491 kts | 60° |
| 2026-05-01 10:10 | -34.51700 | 149.89925 | 25294 ft | 491 kts | 60° |
| 2026-05-01 10:10 | -34.50111 | 149.93515 | 24174 ft | 478 kts | 60° |
| 2026-05-01 10:10 | -34.47033 | 150.00468 | 21271 ft | 457 kts | 60° |
| 2026-05-01 10:11 | -34.45546 | 150.03824 | 19918 ft | 447 kts | 60° |
| 2026-05-01 10:11 | -34.44090 | 150.07107 | 18607 ft | 438 kts | 61° |
| 2026-05-01 10:11 | -34.42663 | 150.10325 | 17157 ft | 428 kts | 61° |
| 2026-05-01 10:11 | -34.41288 | 150.13424 | 15839 ft | 419 kts | 60° |
| 2026-05-01 10:12 | -34.39922 | 150.16498 | 14591 ft | 410 kts | 60° |
| 2026-05-01 10:12 | -34.39011 | 150.18542 | 13738 ft | 405 kts | 60° |
| 2026-05-01 10:12 | -34.35971 | 150.25368 | 10918 ft | 392 kts | 60° |
| 2026-05-01 10:13 | -34.34673 | 150.28265 | 10423 ft | 390 kts | 60° |
| 2026-05-01 10:13 | -34.33413 | 150.31093 | 10197 ft | 373 kts | 60° |
| 2026-05-01 10:13 | -34.32213 | 150.33786 | 10028 ft | 355 kts | 60° |
| 2026-05-01 10:14 | -34.29999 | 150.38748 | 10029 ft | 317 kts | 60° |
| 2026-05-01 10:14 | -34.28977 | 150.41029 | 10031 ft | 301 kts | 60° |
| 2026-05-01 10:14 | -34.27998 | 150.43203 | 10033 ft | 289 kts | 60° |
| 2026-05-01 10:14 | -34.27046 | 150.45332 | 10029 ft | 287 kts | 60° |
| 2026-05-01 10:15 | -34.26114 | 150.47426 | 10028 ft | 286 kts | 60° |
| 2026-05-01 10:15 | -34.25173 | 150.49542 | 10031 ft | 286 kts | 60° |
| 2026-05-01 10:15 | -34.24231 | 150.51659 | 10034 ft | 286 kts | 60° |
| 2026-05-01 10:15 | -34.23283 | 150.53772 | 10011 ft | 286 kts | 60° |
| 2026-05-01 10:16 | -34.22329 | 150.55887 | 9711 ft | 288 kts | 60° |
| 2026-05-01 10:16 | -34.21374 | 150.58006 | 9372 ft | 286 kts | 60° |
| 2026-05-01 10:16 | -34.19492 | 150.62197 | 8748 ft | 280 kts | 60° |
| 2026-05-01 10:17 | -34.18564 | 150.64261 | 8415 ft | 279 kts | 60° |
| 2026-05-01 10:17 | -34.16736 | 150.68338 | 7910 ft | 271 kts | 60° |
| 2026-05-01 10:17 | -34.15835 | 150.70335 | 7787 ft | 270 kts | 60° |
| 2026-05-01 10:18 | -34.14040 | 150.74312 | 7545 ft | 269 kts | 60° |
| 2026-05-01 10:18 | -34.13148 | 150.76292 | 7416 ft | 268 kts | 60° |
| 2026-05-01 10:18 | -34.12263 | 150.78261 | 7295 ft | 267 kts | 60° |
| 2026-05-01 10:19 | -34.11388 | 150.80203 | 7179 ft | 266 kts | 60° |
| 2026-05-01 10:19 | -34.10499 | 150.82164 | 7055 ft | 266 kts | 60° |
| 2026-05-01 10:19 | -34.09614 | 150.84118 | 6941 ft | 265 kts | 60° |
| 2026-05-01 10:20 | -34.07864 | 150.88025 | 6687 ft | 264 kts | 60° |
| 2026-05-01 10:20 | -34.06990 | 150.89971 | 6559 ft | 263 kts | 60° |
| 2026-05-01 10:20 | -34.06115 | 150.91909 | 6429 ft | 263 kts | 60° |
| 2026-05-01 10:20 | -34.05239 | 150.93846 | 6299 ft | 263 kts | 60° |
| 2026-05-01 10:21 | -34.04366 | 150.95777 | 6173 ft | 263 kts | 60° |
| 2026-05-01 10:21 | -34.03355 | 150.99911 | 6006 ft | 266 kts | 93° |
| 2026-05-01 10:21 | -34.03838 | 151.02070 | 6011 ft | 270 kts | 115° |
| 2026-05-01 10:22 | -34.06264 | 151.05546 | 5663 ft | 272 kts | 131° |
| 2026-05-01 10:22 | -34.09418 | 151.08047 | 5015 ft | 276 kts | 161° |
| 2026-05-01 10:23 | -34.11288 | 151.08574 | 4692 ft | 276 kts | 166° |
| 2026-05-01 10:23 | -34.15025 | 151.09534 | 4161 ft | 270 kts | 166° |
| 2026-05-01 10:23 | -34.16805 | 151.10104 | 4036 ft | 259 kts | 152° |
| 2026-05-01 10:24 | -34.18802 | 151.13176 | 3789 ft | 226 kts | 93° |
| 2026-05-01 10:24 | -34.18715 | 151.16787 | 3539 ft | 206 kts | 83° |
| 2026-05-01 10:25 | -34.18513 | 151.20062 | 3280 ft | 188 kts | 83° |
| 2026-05-01 10:25 | -34.17610 | 151.22722 | 3071 ft | 176 kts | 28° |
| 2026-05-01 10:26 | -34.16427 | 151.22917 | 3093 ft | 171 kts | 354° |
| 2026-05-01 10:26 | -34.15288 | 151.22696 | 3060 ft | 168 kts | 354° |
| 2026-05-01 10:26 | -34.12948 | 151.22244 | 3045 ft | 171 kts | 353° |
| 2026-05-01 10:27 | -34.10614 | 151.21648 | 3051 ft | 167 kts | 351° |
| 2026-05-01 10:27 | -34.08532 | 151.21102 | 2630 ft | 150 kts | 353° |
| 2026-05-01 10:28 | -34.07485 | 151.20874 | 2376 ft | 153 kts | 354° |
| 2026-05-01 10:28 | -34.05346 | 151.20358 | 1996 ft | 160 kts | 352° |
| 2026-05-01 10:28 | -34.04253 | 151.20086 | 1771 ft | 160 kts | 352° |
| 2026-05-01 10:29 | -34.02096 | 151.19529 | 1236 ft | 152 kts | 352° |
| 2026-05-01 10:29 | -34.01091 | 151.19277 | 983 ft | 145 kts | 352° |
| 2026-05-01 10:30 | -33.99170 | 151.18777 | 594 ft | 140 kts | 351° |
| 2026-05-01 10:30 | -33.97249 | 151.18283 | 243 ft | 142 kts | 348° |
| 2026-05-01 10:31 | -33.95417 | 151.17803 | 29 ft | 107 kts | 348° |
| 2026-05-01 10:31 | -33.94212 | 151.17492 | 30 ft | 73 kts | 348° |
| 2026-05-01 10:32 | -33.93897 | 151.17533 | 28 ft | 8 kts | 72° |
| 2026-05-01 10:32 | -33.93895 | 151.17543 | 28 ft | 0 kts | 74° |
| 2026-05-01 10:33 | -33.93884 | 151.17584 | 29 ft | 6 kts | 67° |
| 2026-05-01 10:34 | -33.93836 | 151.17597 | 29 ft | 9 kts | 346° |
| 2026-05-01 10:34 | -33.93764 | 151.17577 | 29 ft | 12 kts | 347° |
| 2026-05-01 10:34 | -33.93672 | 151.17562 | 29 ft | 14 kts | 12° |
| 2026-05-01 10:35 | -33.93643 | 151.17663 | 30 ft | 7 kts | 95° |
| 2026-05-01 10:35 | -33.93651 | 151.17734 | 30 ft | 9 kts | 99° |
| 2026-05-01 10:35 | -33.93655 | 151.17800 | 30 ft | 5 kts | 67° |
| 2026-05-01 10:35 | -33.93627 | 151.17817 | 30 ft | 3 kts | 9° |
| 2026-05-01 10:36 | -33.93626 | 151.17817 | 30 ft | 0 kts | 9° |
| 2026-05-01 10:36 | -33.93617 | 151.17819 | 30 ft | 2 kts | 9° |
| 2026-05-01 10:36 | -33.93596 | 151.17824 | 30 ft | 5 kts | 10° |
| 2026-05-01 10:37 | -33.93570 | 151.17808 | 30 ft | 4 kts | 291° |
| 2026-05-01 10:37 | -33.93564 | 151.17765 | 30 ft | 1 kts | 280° |
| 2026-05-01 10:37 | -33.93563 | 151.17759 | 30 ft | 0 kts | 280° |